Time,TemperatureF,DewpointF,PressureIn,WindDirection,WindDirectionDegrees,WindSpeedMPH,WindSpeedGustMPH,Humidity,HourlyPrecipIn,Conditions,Clouds,dailyrainin,SolarRadiationWatts/m^2,SoftwareType,DateUTC
2013-01-17 00:05:00,67.0,66.0,-100.00,SE,142,1.0,3.0,98,0.00,,,0.00,0.000000,,2013-01-17 05:05:00,
2013-01-17 00:12:00,67.0,66.0,-100.00,SE,142,1.0,3.0,98,0.00,,,0.00,0.000000,,2013-01-17 05:12:00,
2013-01-17 00:43:00,66.0,66.0,-100.00,SE,142,0.0,3.0,99,0.00,,,0.00,0.000000,,2013-01-17 05:43:00,
2013-01-17 00:53:00,66.0,66.0,-100.00,SE,142,0.0,3.0,99,0.00,,,0.00,0.000000,,2013-01-17 05:53:00,
2013-01-17 01:03:00,66.0,66.0,-100.00,SE,142,0.0,3.0,99,0.00,,,0.00,0.000000,,2013-01-17 06:03:00,
2013-01-17 01:12:00,66.0,66.0,-100.00,SE,142,0.0,3.0,99,0.00,,,0.00,0.000000,,2013-01-17 06:12:00,
2013-01-17 01:33:00,64.0,64.0,-100.00,SE,131,2.0,3.0,99,0.00,,,0.00,0.000000,,2013-01-17 06:33:00,
2013-01-17 01:42:00,64.0,64.0,-100.00,SE,131,2.0,3.0,99,0.00,,,0.00,0.000000,,2013-01-17 06:42:00,
2013-01-17 01:53:00,64.0,64.0,-100.00,SE,131,2.0,3.0,99,0.00,,,0.00,0.000000,,2013-01-17 06:53:00,
2013-01-17 02:02:00,64.0,64.0,-100.00,SE,131,2.0,3.0,99,0.00,,,0.00,0.000000,,2013-01-17 07:02:00,
2013-01-17 02:12:00,64.0,64.0,-100.00,SE,131,2.0,3.0,99,0.00,,,0.00,0.000000,,2013-01-17 07:12:00,
2013-01-17 02:43:00,64.0,64.0,-100.00,SSE,148,2.0,4.0,99,0.00,,,0.00,0.000000,,2013-01-17 07:43:00,
2013-01-17 02:53:00,64.0,64.0,-100.00,SSE,148,2.0,4.0,99,0.00,,,0.00,0.000000,,2013-01-17 07:53:00,
2013-01-17 03:02:00,64.0,64.0,-100.00,SSE,148,2.0,4.0,99,0.00,,,0.00,0.000000,,2013-01-17 08:02:00,
2013-01-17 03:12:00,64.0,64.0,-100.00,SSE,148,2.0,4.0,99,0.00,,,0.00,0.000000,,2013-01-17 08:12:00,
2013-01-17 03:43:00,63.0,63.0,-100.00,SSE,150,0.0,2.0,99,0.00,,,0.00,0.000000,,2013-01-17 08:43:00,
2013-01-17 03:53:00,63.0,63.0,-100.00,SSE,150,0.0,2.0,99,0.00,,,0.00,0.000000,,2013-01-17 08:53:00,
2013-01-17 04:03:00,63.0,63.0,-100.00,SSE,150,0.0,2.0,99,0.00,,,0.00,0.000000,,2013-01-17 09:03:00,
2013-01-17 04:12:00,63.0,63.0,-100.00,SSE,150,0.0,2.0,99,0.00,,,0.00,0.000000,,2013-01-17 09:12:00,
2013-01-17 04:33:00,63.0,63.0,-100.00,SSW,193,0.0,0.0,99,0.00,,,0.00,0.000000,,2013-01-17 09:33:00,
2013-01-17 04:43:00,63.0,63.0,-100.00,SSW,193,0.0,0.0,99,0.00,,,0.00,0.000000,,2013-01-17 09:43:00,
2013-01-17 04:53:00,63.0,63.0,-100.00,SSW,193,0.0,0.0,99,0.00,,,0.00,0.000000,,2013-01-17 09:53:00,
2013-01-17 05:02:00,63.0,63.0,-100.00,SSW,193,0.0,0.0,99,0.00,,,0.00,0.000000,,2013-01-17 10:02:00,
2013-01-17 05:12:00,63.0,63.0,-100.00,SSW,193,0.0,0.0,99,0.00,,,0.00,0.000000,,2013-01-17 10:12:00,
2013-01-17 05:33:00,62.0,62.0,-100.00,SSE,165,0.0,0.0,99,0.00,,,0.00,0.000000,,2013-01-17 10:33:00,
2013-01-17 05:43:00,62.0,62.0,-100.00,SSE,165,0.0,0.0,99,0.00,,,0.00,0.000000,,2013-01-17 10:43:00,
2013-01-17 05:53:00,62.0,62.0,-100.00,SSE,165,0.0,0.0,99,0.00,,,0.00,0.000000,,2013-01-17 10:53:00,
2013-01-17 06:03:00,62.0,62.0,-100.00,SSE,165,0.0,0.0,99,0.00,,,0.00,0.000000,,2013-01-17 11:03:00,
2013-01-17 06:12:00,62.0,62.0,-100.00,SSE,165,0.0,0.0,99,0.00,,,0.00,0.000000,,2013-01-17 11:12:00,
2013-01-17 06:33:00,62.0,62.0,-100.00,SSE,156,0.0,0.0,99,0.00,,,0.00,0.000000,,2013-01-17 11:33:00,
2013-01-17 06:43:00,62.0,62.0,-100.00,SSE,156,0.0,0.0,99,0.00,,,0.00,0.000000,,2013-01-17 11:43:00,
2013-01-17 06:53:00,62.0,62.0,-100.00,SSE,156,0.0,0.0,99,0.00,,,0.00,0.000000,,2013-01-17 11:53:00,
2013-01-17 07:03:00,62.0,62.0,-100.00,SSE,156,0.0,0.0,99,0.00,,,0.00,0.000000,,2013-01-17 12:03:00,
2013-01-17 07:12:00,62.0,62.0,-100.00,SSE,156,0.0,0.0,99,0.00,,,0.00,0.000000,,2013-01-17 12:12:00,
2013-01-17 07:33:00,62.0,62.0,-100.00,SSE,166,0.0,0.0,99,0.00,,,0.00,0.000000,,2013-01-17 12:33:00,
2013-01-17 07:43:00,62.0,62.0,-100.00,SSE,166,0.0,0.0,99,0.00,,,0.00,0.000000,,2013-01-17 12:43:00,
2013-01-17 07:53:00,62.0,62.0,-100.00,SSE,166,0.0,0.0,99,0.00,,,0.00,0.000000,,2013-01-17 12:53:00,
2013-01-17 08:03:00,62.0,62.0,-100.00,SSE,166,0.0,0.0,99,0.00,,,0.00,0.000000,,2013-01-17 13:03:00,
2013-01-17 08:12:00,62.0,62.0,-100.00,SSE,166,0.0,0.0,99,0.00,,,0.00,0.000000,,2013-01-17 13:12:00,
2013-01-17 08:33:00,69.0,68.0,-100.00,SSE,151,0.0,2.0,98,0.00,,,0.00,57.000000,,2013-01-17 13:33:00,
2013-01-17 08:43:00,69.0,68.0,-100.00,SSE,151,0.0,2.0,98,0.00,,,0.00,57.000000,,2013-01-17 13:43:00,
2013-01-17 08:53:00,69.0,68.0,-100.00,SSE,151,0.0,2.0,98,0.00,,,0.00,57.000000,,2013-01-17 13:53:00,
2013-01-17 09:03:00,69.0,68.0,-100.00,SSE,151,0.0,2.0,98,0.00,,,0.00,57.000000,,2013-01-17 14:03:00,
2013-01-17 09:13:00,69.0,68.0,-100.00,SSE,151,0.0,2.0,98,0.00,,,0.00,57.000000,,2013-01-17 14:13:00,
2013-01-17 09:33:00,75.0,73.0,-100.00,South,174,4.0,8.0,93,0.00,,,0.00,211.000000,,2013-01-17 14:33:00,
2013-01-17 09:43:00,75.0,73.0,-100.00,South,174,4.0,8.0,93,0.00,,,0.00,211.000000,,2013-01-17 14:43:00,
2013-01-17 09:53:00,75.0,73.0,-100.00,South,174,4.0,8.0,93,0.00,,,0.00,211.000000,,2013-01-17 14:53:00,
2013-01-17 10:03:00,75.0,73.0,-100.00,South,174,4.0,8.0,93,0.00,,,0.00,211.000000,,2013-01-17 15:03:00,
2013-01-17 10:13:00,75.0,73.0,-100.00,South,174,4.0,8.0,93,0.00,,,0.00,211.000000,,2013-01-17 15:13:00,
2013-01-17 10:33:00,77.0,71.0,-100.00,South,190,6.0,10.0,82,0.00,,,0.00,334.000000,,2013-01-17 15:33:00,
2013-01-17 10:43:00,77.0,71.0,-100.00,South,190,6.0,10.0,82,0.00,,,0.00,334.000000,,2013-01-17 15:43:00,
2013-01-17 10:53:00,77.0,71.0,-100.00,South,190,6.0,10.0,82,0.00,,,0.00,334.000000,,2013-01-17 15:53:00,
2013-01-17 11:03:00,77.0,71.0,-100.00,South,190,6.0,10.0,82,0.00,,,0.00,334.000000,,2013-01-17 16:03:00,
2013-01-17 11:12:00,77.0,71.0,-100.00,South,190,6.0,10.0,82,0.00,,,0.00,334.000000,,2013-01-17 16:12:00,
2013-01-17 11:44:00,78.0,70.0,-100.00,SSW,200,7.0,12.0,77,0.00,,,0.00,450.000000,,2013-01-17 16:44:00,
2013-01-17 11:53:00,78.0,70.0,-100.00,SSW,200,7.0,12.0,77,0.00,,,0.00,450.000000,,2013-01-17 16:53:00,
2013-01-17 12:03:00,78.0,70.0,-100.00,SSW,200,7.0,12.0,77,0.00,,,0.00,450.000000,,2013-01-17 17:03:00,
2013-01-17 12:13:00,78.0,70.0,-100.00,SSW,200,7.0,12.0,77,0.00,,,0.00,450.000000,,2013-01-17 17:13:00,
2013-01-17 12:33:00,79.0,71.0,-100.00,SW,226,7.0,13.0,76,0.00,,,0.00,518.000000,,2013-01-17 17:33:00,
2013-01-17 12:43:00,79.0,71.0,-100.00,SW,226,7.0,13.0,76,0.00,,,0.00,518.000000,,2013-01-17 17:43:00,
2013-01-17 12:54:00,79.0,71.0,-100.00,SW,226,7.0,13.0,76,0.00,,,0.00,518.000000,,2013-01-17 17:54:00,
2013-01-17 13:04:00,79.0,71.0,-100.00,SW,226,7.0,13.0,76,0.00,,,0.00,518.000000,,2013-01-17 18:04:00,
2013-01-17 13:13:00,79.0,71.0,-100.00,SW,226,7.0,13.0,76,0.00,,,0.00,518.000000,,2013-01-17 18:13:00,
2013-01-17 13:34:00,75.0,68.0,-100.00,WNW,303,9.0,16.0,80,0.00,,,0.00,359.000000,,2013-01-17 18:34:00,
2013-01-17 13:44:00,75.0,68.0,-100.00,WNW,303,9.0,16.0,80,0.00,,,0.00,359.000000,,2013-01-17 18:44:00,
2013-01-17 13:54:00,75.0,68.0,-100.00,WNW,303,9.0,16.0,80,0.00,,,0.00,359.000000,,2013-01-17 18:54:00,
2013-01-17 14:04:00,75.0,68.0,-100.00,WNW,303,9.0,16.0,80,0.00,,,0.00,359.000000,,2013-01-17 19:04:00,
2013-01-17 14:13:00,75.0,68.0,-100.00,WNW,303,9.0,16.0,80,0.00,,,0.00,359.000000,,2013-01-17 19:13:00,
2013-01-17 14:43:00,72.0,65.0,-100.00,NW,318,10.0,22.0,79,0.00,,,0.00,303.000000,,2013-01-17 19:43:00,
2013-01-17 14:54:00,72.0,65.0,-100.00,NW,318,10.0,22.0,79,0.00,,,0.00,303.000000,,2013-01-17 19:54:00,
2013-01-17 15:03:00,72.0,65.0,-100.00,NW,318,10.0,22.0,79,0.00,,,0.00,303.000000,,2013-01-17 20:03:00,
2013-01-17 15:13:00,72.0,65.0,-100.00,NW,318,10.0,22.0,79,0.00,,,0.00,303.000000,,2013-01-17 20:13:00,
2013-01-17 15:43:00,68.0,62.0,-100.00,NW,324,10.0,23.0,82,0.00,,,0.00,100.000000,,2013-01-17 20:43:00,
2013-01-17 15:54:00,68.0,62.0,-100.00,NW,324,10.0,23.0,82,0.00,,,0.00,100.000000,,2013-01-17 20:54:00,
2013-01-17 16:03:00,68.0,62.0,-100.00,NW,324,10.0,23.0,82,0.00,,,0.00,100.000000,,2013-01-17 21:03:00,
2013-01-17 16:13:00,68.0,62.0,-100.00,NW,324,10.0,23.0,82,0.00,,,0.00,100.000000,,2013-01-17 21:13:00,
2013-01-17 16:34:00,64.0,59.0,-100.00,NNW,333,13.0,25.0,83,0.00,,,0.00,40.000000,,2013-01-17 21:34:00,
2013-01-17 16:43:00,64.0,59.0,-100.00,NNW,333,13.0,25.0,83,0.00,,,0.00,40.000000,,2013-01-17 21:43:00,
2013-01-17 16:53:00,64.0,59.0,-100.00,NNW,333,13.0,25.0,83,0.00,,,0.00,40.000000,,2013-01-17 21:53:00,
2013-01-17 17:04:00,64.0,59.0,-100.00,NNW,333,13.0,25.0,83,0.00,,,0.00,40.000000,,2013-01-17 22:04:00,
2013-01-17 17:12:00,64.0,59.0,-100.00,NNW,333,13.0,25.0,83,0.00,,,0.00,40.000000,,2013-01-17 22:12:00,
2013-01-17 17:33:00,64.0,56.0,-100.00,NNW,332,10.0,24.0,76,0.00,,,0.00,25.000000,,2013-01-17 22:33:00,
2013-01-17 17:43:00,64.0,56.0,-100.00,NNW,332,10.0,24.0,76,0.00,,,0.00,25.000000,,2013-01-17 22:43:00,
2013-01-17 17:53:00,64.0,56.0,-100.00,NNW,332,10.0,24.0,76,0.00,,,0.00,25.000000,,2013-01-17 22:53:00,
2013-01-17 18:03:00,64.0,56.0,-100.00,NNW,332,10.0,24.0,76,0.00,,,0.00,25.000000,,2013-01-17 23:03:00,
2013-01-17 18:12:00,64.0,56.0,-100.00,NNW,332,10.0,24.0,76,0.00,,,0.00,25.000000,,2013-01-17 23:12:00,
2013-01-17 18:43:00,64.0,54.0,-100.00,NNW,330,10.0,21.0,69,0.00,,,0.00,4.000000,,2013-01-17 23:43:00,
2013-01-17 18:53:00,64.0,54.0,-100.00,NNW,330,10.0,21.0,69,0.00,,,0.00,4.000000,,2013-01-17 23:53:00,
2013-01-17 19:03:00,64.0,54.0,-100.00,NNW,330,10.0,21.0,69,0.00,,,0.00,4.000000,,2013-01-18 00:03:00,
2013-01-17 19:12:00,64.0,54.0,-100.00,NNW,330,10.0,21.0,69,0.00,,,0.00,4.000000,,2013-01-18 00:12:00,
2013-01-17 19:43:00,64.0,54.0,-100.00,NNW,334,10.0,21.0,69,0.00,,,0.00,0.000000,,2013-01-18 00:43:00,
2013-01-17 19:53:00,64.0,54.0,-100.00,NNW,334,10.0,21.0,69,0.00,,,0.00,0.000000,,2013-01-18 00:53:00,
2013-01-17 20:03:00,64.0,54.0,-100.00,NNW,334,10.0,21.0,69,0.00,,,0.00,0.000000,,2013-01-18 01:03:00,
2013-01-17 20:13:00,64.0,54.0,-100.00,NNW,334,10.0,21.0,69,0.00,,,0.00,0.000000,,2013-01-18 01:13:00,
2013-01-17 20:33:00,64.0,51.0,-100.00,NNW,330,9.0,21.0,62,0.00,,,0.00,0.000000,,2013-01-18 01:33:00,
2013-01-17 20:43:00,64.0,51.0,-100.00,NNW,330,9.0,21.0,62,0.00,,,0.00,0.000000,,2013-01-18 01:43:00,
2013-01-17 20:53:00,64.0,51.0,-100.00,NNW,330,9.0,21.0,62,0.00,,,0.00,0.000000,,2013-01-18 01:53:00,
2013-01-17 21:03:00,64.0,51.0,-100.00,NNW,330,9.0,21.0,62,0.00,,,0.00,0.000000,,2013-01-18 02:03:00,
2013-01-17 21:12:00,64.0,51.0,-100.00,NNW,330,9.0,21.0,62,0.00,,,0.00,0.000000,,2013-01-18 02:12:00,
2013-01-17 21:43:00,63.0,52.0,-100.00,NNW,333,8.0,22.0,67,0.00,,,0.00,0.000000,,2013-01-18 02:43:00,
2013-01-17 21:53:00,63.0,52.0,-100.00,NNW,333,8.0,22.0,67,0.00,,,0.00,0.000000,,2013-01-18 02:53:00,
2013-01-17 22:03:00,63.0,52.0,-100.00,NNW,333,8.0,22.0,67,0.00,,,0.00,0.000000,,2013-01-18 03:03:00,
2013-01-17 22:13:00,63.0,52.0,-100.00,NNW,333,8.0,22.0,67,0.00,,,0.00,0.000000,,2013-01-18 03:13:00,
2013-01-17 22:33:00,63.0,51.0,-100.00,NNW,330,10.0,19.0,66,0.00,,,0.00,0.000000,,2013-01-18 03:33:00,
2013-01-17 22:43:00,63.0,51.0,-100.00,NNW,330,10.0,19.0,66,0.00,,,0.00,0.000000,,2013-01-18 03:43:00,
2013-01-17 22:53:00,63.0,51.0,-100.00,NNW,330,10.0,19.0,66,0.00,,,0.00,0.000000,,2013-01-18 03:53:00,
2013-01-17 23:02:00,63.0,51.0,-100.00,NNW,330,10.0,19.0,66,0.00,,,0.00,0.000000,,2013-01-18 04:02:00,
2013-01-17 23:12:00,63.0,51.0,-100.00,NNW,330,10.0,19.0,66,0.00,,,0.00,0.000000,,2013-01-18 04:12:00,
2013-01-17 23:33:00,62.0,51.0,-100.00,NNW,338,10.0,24.0,66,0.00,,,0.00,0.000000,,2013-01-18 04:33:00,
2013-01-17 23:43:00,62.0,51.0,-100.00,NNW,338,10.0,24.0,66,0.00,,,0.00,0.000000,,2013-01-18 04:43:00,
2013-01-17 23:53:00,62.0,51.0,-100.00,NNW,338,10.0,24.0,66,0.00,,,0.00,0.000000,,2013-01-18 04:53:00,